Aviation Digital Data Service (ADDS)

Output produced by METARs form (1644 UTC 20 January 2019)
found at http://www.aviationweather.gov/metar/data/
 
DAUA 201600Z 22015KT CAVOK 22/M05 Q1016
TAF DAUA 201100Z 2012/2112 22012KT CAVOK
       
DABB 201630Z 10003KT 9999 FEW023 SCT040 BKN100 13/07 Q1007
TAF DABB 201100Z 2012/2112 20010KT 9999 FEW023 SCT200 
     PROB40 
     TEMPO 2013/2024 FEW026TCU SCT100 
     PROB30 
     TEMPO 2018/2103 19015G25KT 4000 -TSRA FEW020CB BKN030
       
DABT 201600Z 19014KT 9999 FEW020 BKN023 09/03 Q1009
TAF DABT 201100Z 2012/2112 28012KT 9000 SCT020 
     TEMPO 2012/2024 FEW023TCU 
     PROB40 
     TEMPO 2013/2020 20015G25KT 4000 -TSRA FEW023CB BKN030
       
DAOR 201600Z 22006KT 9999 FEW033 SCT100 19/01 Q1015
TAF DAOR 201400Z 2015/2024 20008KT CAVOK
       
DAAE 201600Z 27011KT 9000 FEW020 SCT043 BKN090 12/09 Q1007
TAF DAAE 201100Z 2012/2112 26010KT 9999 FEW023 SCT100 
     TEMPO 2012/2024 FEW023TCU 
     PROB40 
     TEMPO 2013/2020 20015G25KT 4000 -TSRA FEW023CB BKN030
       
DAUB 201600Z 31003KT 9000 -RA BKN040 SCT100 13/07 Q1013
TAF DAUB 201100Z 2012/2112 14010KT 9999 SCT040 
     TEMPO 2012/2024 FEW023TCU 
     PROB40 
     TEMPO 2013/2024 04015G25KT 4000 -TSRA FEW023CB BKN030
       
DATM 201600Z 04008KT CAVOK 22/// Q1018
TAF DATM 201400Z 2015/2024 04010KT CAVOK
       
DAAD 201600Z 01008KT 7000 3000W -RA BR FEW023TCU SCT026 BKN080 08/06 Q1010
TAF DAAD 201400Z 2015/2024 08006KT 6000 SCT026 BKN080 
     TEMPO 2017/2021 4000 -RA
       
DAOI 201600Z 22006KT 6000 -TSRA SCT023 FEW026CB BKN030 11/10 Q1008
TAF DAOI 201100Z 2012/2112 24010KT 9999 SCT023 FEW026CB SCT030 
     TEMPO 2012/2024 2105G25KT 6000 TSRA SCT020 FEW023CB BKN026
       
DABC 201630Z 20016KT 9999 SCT023 FEW026CB BKN033 10/05 Q1009
TAF DABC 201100Z 2012/2112 22008KT 9999 FEW030 SCT200 
     TEMPO 2012/2024 FEW023TCU SCT100 
     PROB40 
     TEMPO 2013/2021 22015G25KT 3000 TSRA FEW020CB BKN030
       
DAAG 201630Z 27006KT 240V300 9999 FEW020TCU FEW026CB SCT040 11/10 Q1008
TAF DAAG 201100Z 2012/2112 24008KT 6000 FEW020 SCT060 BKN100 
     TEMPO 2012/2108 5000 -RA FEW026CB 
     PROB30 
     TEMPO 2012/2018 26015G25KT 3000 -TSRA SCT020TCU FEW023CB 
     BECMG 2017/2020 30014KT 
     PROB30 
     TEMPO 2100/2106 32020G30KT 3000 TSRA BKN015 FEW020CB
       
DAAJ 201600Z 34002KT CAVOK 19/M07 Q1018
TAF DAAJ 201100Z 2012/2112 36010KT CAVOK 
     BECMG 2107/2110 22010KT
       
DAUE 201600Z 22018KT 8000 NSC 20/M03 Q1014
DAUO 201600Z 21009KT 9999 SCT040 SCT100 17/03 Q1012
TAF DAUO 201400Z 2015/2024 20012KT CAVOK
       
DAUG 201600Z 24015KT 9999 SCT040 SCT100 17/01 Q1013
TAF DAUG 201100Z 2012/2112 28016KT 9999 BKN040 SCT100 
     PROB30 
     TEMPO 2012/2017 28016G30KT FEW030CB
       
DAUH 201630Z 21010KT 9999 FEW040 19/11 Q1014
TAF DAUH 201100Z 2012/2112 20010KT CAVOK 
     PROB30 
     TEMPO 2014/2018 FEW030TCU
       
DAAP 201600Z 30004KT CAVOK 18/M01 Q1018
TAF DAAP 201400Z 2015/2024 30008KT CAVOK
       
DAUZ 201600Z 24009KT CAVOK 16/M05 Q1017
TAF DAUZ 201100Z 2012/2112 24010KT CAVOK
       
DAUI 201600Z 23009KT CAVOK 22/M06 Q1017
TAF DAUI 201100Z 2012/2112 VRB02KT CAVOK 
     BECMG 2013/2016 22010KT 
     BECMG 2023/2102 VRB02KT
       
DAAV 201600Z 24002KT 9999 FEW020 SCT030 BKN090 13/09 Q1007
TAF DAAV 201100Z 2012/2112 19010KT 9000 FEW020 SCT100 
     TEMPO 2012/2024 FEW023TCU 
     PROB40 
     TEMPO 2013/2024 20015G25KT 4000 -TSRA FEW023CB BKN030
       
DAUL 201600Z 27016KT 9999 SCT030 SCT080 13/04 Q1011
TAF DAUL 201400Z 2015/2024 24018KT 9999 BKN030 
     PROB40 
     TEMPO 2017/2024 24018G30KT 5000 -RA FEW026CB
       
DAOV 201600Z 28020G33KT 8000 TS SCT016 FEW026CB BKN026 11/09 Q1011 RERA
TAF DAOV 201400Z 2015/2024 22020G30KT 8000 RA SCT020 FEW026CB BKN026 
     TEMPO 2015/2022 4000 TSSHRA
       
DAAY 201600Z 26022KT 7000 FEW023 FEW026CB BKN030 11/03 Q1014
TAF DAAY 201400Z 2015/2024 26020KT 7000 FEW023 FEW026CB BKN030 
     TEMPO 2015/2020 5000 -TSRA
       
DAOO 201630Z 26013KT 9999 SCT013 FEW020TCU SCT030 13/10 Q1010
TAF DAOO 201100Z 2012/2112 23020KT 9999 BKN020 
     BECMG 2014/2016 RA 
     TEMPO 2016/2024 26020G30KT 6000 TSRA SCT023 FEW026CB BKN026 
     TEMPO 2020/2024 TSSHRA
       
DAOL 201600Z 26026KT 9999 FEW020CB FEW023TCU BKN026 14/13 Q1011
DAUU 201600Z 23008KT 9999 SCT033 SCT100 20/03 Q1013
TAF DAUU 201400Z 2015/2024 22012KT CAVOK
       
DAAS 201600Z 22007KT 7000 -RA FEW010 BKN026 06/04 Q1009
TAF DAAS 201100Z 2012/2112 25009KT 9000 FEW010 SCT030 
     TEMPO 2012/2024 FEW023TCU 
     PROB40 
     TEMPO 2013/2018 20015G25KT 4000 -TSRA FEW023CB BKN030
       
DAAT 201630Z 26008KT CAVOK 19/// Q1019
TAF DAAT 201100Z 2012/2112 VRB02KT CAVOK 
     BECMG 2017/2020 14010KT
       
DABS 201600Z 22006KT 9999 FEW033 SCT090 10/M01 Q1010
TAF DABS 201100Z 2012/2112 17008KT 9999 FEW030 
     PROB40 
     TEMPO 2012/2024 FEW023TCU SCT100 
     PROB30 
     TEMPO 2018/2024 20015G25KT 5000 -TSRA FEW020CB BKN030
       
DAOB 201600Z 26018KT 7000 -RA BKN020 FEW026CB 07/06 Q1009
TAF DAOB 201100Z 2012/2112 24020KT 9999 SCT020 BKN026 
     PROB40 
     TEMPO 2012/2021 24020G30KT 5000 -RA FEW026CB 
     PROB30 
     TEMPO 2016/2020 3000 TSRA BKN015 SCT020CB 
     BECMG 2020/2022 32012KT 
     PROB40 
     TEMPO 2021/2104 FEW026CB
       
DAFH 201600Z 25016KT 9999 BKN030 11/05 Q1015
TAF DAFH 201400Z 2015/2024 24016KT 9999 BKN030 
     PROB30 
     TEMPO 2019/2024 5000 -RA FEW030CB
       
DAUT 201600Z 24016KT CAVOK 22/M05 Q1016
TAF DAUT 201400Z 2015/2024 24016KT CAVOK 
     PROB40 
     TEMPO 2015/2018 24016G30KT 5000 DRSA
       
DAOF 201600Z 29022KT 7000 NSC 22/05 Q1016
TAF DAOF 201400Z 2015/2024 28020KT 5000 DRSA NSC 
     PROB30 
     TEMPO 2015/2018 30020G30KT 3000 
     BECMG 2021/2024 8000 NSW
       
DAON 201630Z 25019KT 9999 FEW010 BKN026 FEW030CB 13/08 Q1013
TAF DAON 201100Z 2012/2112 22020KT 9999 BKN026 
     TEMPO 2014/2020 RA 
     TEMPO 2020/2104 26020G30KT 6000 TSRA SCT023 FEW026CB BKN026 
     TEMPO 2022/2103 TSSHRA
       
DAUK 201600Z 19009KT 9999 SCT040 BKN100 17/03 Q1013
TAF DAUK 201400Z 2015/2024 20015KT 9999 SCT046 SCT100